createdAt,value
2022-08-02T00:01:09.112Z,5.63
2022-08-02T00:03:38.359Z,5.50
2022-08-02T00:06:07.995Z,4.63
2022-08-02T00:08:37.174Z,5.13
2022-08-02T00:11:06.501Z,4.70
2022-08-02T00:13:35.680Z,4.50
2022-08-02T00:16:07.311Z,4.30
2022-08-02T00:18:36.568Z,4.88
2022-08-02T00:21:05.978Z,4.70
2022-08-02T00:24:04.950Z,4.93
2022-08-02T00:26:25.354Z,5.38
2022-08-02T00:28:54.585Z,4.65
2022-08-02T00:31:26.105Z,4.80
2022-08-02T00:34:05.650Z,5.20
2022-08-02T00:36:44.858Z,5.15
2022-08-02T00:39:34.798Z,4.55
2022-08-02T00:42:03.325Z,4.47
2022-08-02T00:44:32.708Z,4.57
2022-08-02T00:47:04.064Z,4.70
2022-08-02T00:49:33.853Z,4.20
2022-08-02T00:52:03.224Z,4.35
2022-08-02T00:54:32.572Z,4.53
2022-08-02T00:57:02.466Z,4.72
2022-08-02T00:59:31.774Z,4.93
2022-08-02T01:02:00.955Z,4.60
2022-08-02T01:04:32.515Z,4.30
2022-08-02T01:07:03.617Z,5.07
2022-08-02T01:09:43.087Z,4.43
2022-08-02T01:12:13.681Z,4.55
2022-08-02T01:14:45.265Z,4.85
2022-08-02T01:17:20.507Z,4.78
2022-08-02T01:19:59.909Z,4.88
2022-08-02T01:23:05.053Z,4.93
2022-08-02T01:25:55.446Z,4.53
2022-08-02T01:28:36.739Z,5.05
2022-08-02T01:31:15.964Z,5.10
2022-08-02T01:33:50.170Z,5.10
2022-08-02T01:36:22.917Z,5.18
2022-08-02T01:38:56.234Z,4.93
2022-08-02T01:41:29.238Z,4.90
2022-08-02T01:44:02.182Z,4.55
2022-08-02T01:46:34.728Z,4.80
2022-08-02T01:49:09.463Z,4.55
2022-08-02T01:51:54.800Z,4.60
2022-08-02T01:54:26.909Z,5.32
2022-08-02T01:56:58.447Z,4.38
2022-08-02T01:59:31.818Z,4.45
2022-08-02T02:02:03.395Z,4.63
2022-08-02T02:04:34.069Z,4.28
2022-08-02T02:07:05.367Z,4.68
2022-08-02T02:09:47.719Z,4.82
2022-08-02T02:12:21.342Z,4.80
2022-08-02T02:14:53.944Z,4.93
2022-08-02T02:18:10.587Z,5.15
2022-08-02T02:20:17.134Z,5.25
2022-08-02T02:22:48.473Z,4.68
2022-08-02T02:25:35.569Z,4.95
2022-08-02T02:28:11.481Z,4.78
2022-08-02T02:30:48.376Z,5.18
2022-08-02T02:33:20.479Z,5.15
2022-08-02T02:35:53.378Z,5.22
2022-08-02T02:38:24.296Z,5.03
2022-08-02T02:40:54.992Z,5.17
2022-08-02T02:43:26.694Z,4.78
2022-08-02T02:48:29.627Z,4.88
2022-08-02T02:51:00.661Z,5.13
2022-08-02T02:54:30.195Z,5.30
2022-08-02T02:56:21.652Z,4.72
2022-08-02T02:58:52.385Z,5.28
2022-08-02T03:01:35.830Z,5.40
2022-08-02T03:04:20.740Z,5.00
2022-08-02T03:06:51.555Z,4.93
2022-08-02T03:09:21.001Z,4.90
2022-08-02T03:11:51.295Z,5.50
2022-08-02T03:14:20.673Z,5.50
2022-08-02T03:16:53.644Z,5.63
2022-08-02T03:19:23.969Z,5.22
2022-08-02T03:22:02.680Z,5.10
2022-08-02T03:24:32.662Z,5.10
2022-08-02T03:27:01.870Z,5.13
2022-08-02T03:29:34.425Z,4.90
2022-08-02T03:32:07.071Z,5.13
2022-08-02T03:34:36.326Z,4.32
2022-08-02T03:37:06.009Z,4.45
2022-08-02T03:39:37.047Z,5.00
2022-08-02T03:42:15.386Z,5.10
2022-08-02T03:44:45.441Z,4.53
2022-08-02T03:47:17.461Z,4.30
2022-08-02T03:49:47.286Z,4.90
2022-08-02T03:52:17.371Z,4.65
2022-08-02T03:54:46.918Z,4.97
2022-08-02T03:57:16.385Z,4.47
2022-08-02T03:59:47.621Z,4.75
2022-08-02T04:02:19.965Z,4.40
2022-08-02T04:04:49.266Z,4.50
2022-08-02T04:08:01.134Z,4.60
2022-08-02T04:10:08.321Z,4.88
2022-08-02T04:12:37.584Z,5.10
2022-08-02T04:15:09.556Z,4.70
2022-08-02T04:17:45.074Z,4.72
2022-08-02T04:20:19.983Z,5.00
2022-08-02T04:22:54.713Z,4.57
2022-08-02T04:25:35.429Z,4.78
2022-08-02T04:28:17.260Z,4.45
2022-08-02T04:30:49.092Z,4.30
2022-08-02T04:33:20.894Z,4.60
2022-08-02T04:35:50.215Z,4.50
2022-08-02T04:38:21.106Z,4.30
2022-08-02T04:40:55.254Z,4.13
2022-08-02T04:43:25.613Z,4.38
2022-08-02T04:45:56.505Z,4.28
2022-08-02T04:48:27.690Z,4.55
2022-08-02T04:50:58.150Z,3.88
2022-08-02T04:53:27.395Z,4.82
2022-08-02T04:55:57.361Z,4.40
2022-08-02T04:58:42.004Z,3.97
2022-08-02T05:01:11.292Z,4.10
2022-08-02T05:03:42.467Z,4.20
2022-08-02T05:06:18.648Z,4.40
2022-08-02T05:08:52.823Z,4.22
2022-08-02T05:11:34.161Z,4.55
2022-08-02T05:14:04.386Z,4.22
2022-08-02T05:16:33.539Z,4.55
2022-08-02T05:19:05.036Z,4.22
2022-08-02T05:21:34.428Z,4.88
2022-08-02T05:24:03.631Z,4.35
2022-08-02T05:26:33.053Z,4.50
2022-08-02T05:29:02.877Z,4.13
2022-08-02T05:31:32.421Z,5.30
2022-08-02T05:34:05.799Z,4.80
2022-08-02T05:36:37.940Z,4.35
2022-08-02T05:39:18.583Z,4.28
2022-08-02T05:41:48.429Z,4.53
2022-08-02T05:44:17.778Z,4.50
2022-08-02T05:46:47.142Z,4.70
2022-08-02T05:49:19.037Z,4.50
2022-08-02T05:51:58.866Z,4.70
2022-08-02T05:54:39.421Z,4.95
2022-08-02T05:57:16.259Z,4.25
2022-08-02T05:59:58.312Z,5.20
2022-08-02T06:02:32.056Z,4.47
2022-08-02T06:05:07.586Z,4.28
2022-08-02T06:07:39.003Z,4.28
2022-08-02T06:10:12.893Z,4.32
2022-08-02T06:12:48.395Z,4.30
2022-08-02T06:15:19.562Z,4.72
2022-08-02T06:17:49.364Z,4.75
2022-08-02T06:20:22.595Z,4.55
2022-08-02T06:22:53.131Z,4.18
2022-08-02T06:25:49.714Z,4.00
2022-08-02T06:28:16.027Z,4.28
2022-08-02T06:30:46.483Z,4.07
2022-08-02T06:33:15.840Z,4.10
2022-08-02T06:35:55.634Z,4.32
2022-08-02T06:38:27.297Z,4.50
2022-08-02T06:43:36.718Z,4.20
2022-08-02T06:46:57.069Z,4.10
2022-08-02T06:48:59.637Z,3.80
2022-08-02T06:51:30.882Z,4.03
2022-08-02T06:54:00.134Z,3.30
2022-08-02T06:56:29.611Z,3.75
2022-08-02T06:59:02.133Z,3.35
2022-08-02T07:01:38.971Z,2.72
2022-08-02T07:04:08.825Z,2.90
2022-08-02T07:06:39.964Z,3.08
2022-08-02T07:09:24.562Z,3.35
2022-08-02T07:11:53.818Z,3.35
2022-08-02T07:14:23.044Z,3.20
2022-08-02T07:16:55.235Z,3.20
2022-08-02T07:19:29.866Z,3.42
2022-08-02T07:22:09.192Z,3.40
2022-08-02T07:27:12.081Z,3.28
2022-08-02T07:29:45.901Z,3.42
2022-08-02T07:32:17.084Z,3.55
2022-08-02T07:34:51.415Z,3.50
2022-08-02T07:37:53.690Z,3.47
2022-08-02T07:40:20.484Z,3.42
2022-08-02T07:42:51.711Z,3.50
2022-08-02T07:45:22.249Z,3.10
2022-08-02T07:47:52.450Z,3.13
2022-08-02T07:50:23.425Z,3.22
2022-08-02T07:52:57.737Z,3.03
2022-08-02T07:55:39.418Z,2.70
2022-08-02T07:58:11.504Z,2.55
2022-08-02T08:00:44.100Z,2.78
2022-08-02T08:03:14.072Z,2.40
2022-08-02T08:05:43.461Z,2.50
2022-08-02T08:08:17.733Z,2.80
2022-08-02T08:10:47.367Z,2.67
2022-08-02T08:13:16.695Z,2.47
2022-08-02T08:15:52.020Z,2.17
2022-08-02T08:18:22.212Z,2.40
2022-08-02T08:20:52.208Z,2.92
2022-08-02T08:23:23.627Z,1.98
2022-08-02T08:28:21.889Z,1.83
2022-08-02T08:30:51.866Z,2.00
2022-08-02T08:33:21.031Z,1.98
2022-08-02T08:35:50.658Z,1.88
2022-08-02T08:38:20.722Z,2.10
2022-08-02T08:40:53.233Z,2.45
2022-08-02T08:43:22.733Z,2.10
2022-08-02T08:45:55.775Z,1.90
2022-08-02T08:48:31.550Z,1.83
2022-08-02T08:51:06.908Z,2.20
2022-08-02T08:53:42.035Z,2.10
2022-08-02T08:56:16.579Z,2.35
2022-08-02T08:58:48.028Z,1.95
2022-08-02T09:01:21.259Z,1.98
2022-08-02T09:03:50.538Z,2.13
2022-08-02T09:06:20.103Z,1.85
2022-08-02T09:08:49.335Z,1.90
2022-08-02T09:11:24.651Z,1.90
2022-08-02T09:13:56.604Z,2.10
2022-08-02T09:16:33.914Z,1.98
2022-08-02T09:19:17.945Z,1.90
2022-08-02T09:21:47.508Z,1.80
2022-08-02T09:24:22.977Z,2.00
2022-08-02T09:26:54.514Z,1.70
2022-08-02T09:32:04.222Z,1.85
2022-08-02T09:34:46.358Z,2.30
2022-08-02T09:37:29.899Z,1.98
2022-08-02T09:40:02.868Z,2.35
2022-08-02T09:42:35.409Z,2.10
2022-08-02T09:45:05.626Z,2.25
2022-08-02T09:47:37.533Z,2.10
2022-08-02T09:50:09.977Z,2.03
2022-08-02T09:52:45.374Z,2.20
2022-08-02T09:55:15.716Z,1.90
2022-08-02T09:57:51.177Z,2.03
2022-08-02T10:00:37.104Z,2.30
2022-08-02T10:03:19.339Z,2.03
2022-08-02T10:05:56.327Z,1.90
2022-08-02T10:08:33.152Z,1.88
2022-08-02T10:11:03.669Z,1.77
2022-08-02T10:13:37.543Z,2.20
2022-08-02T10:16:08.119Z,2.22
2022-08-02T10:18:39.793Z,1.75
2022-08-02T10:21:14.309Z,1.95
2022-08-02T10:23:46.332Z,2.22
2022-08-02T10:26:18.877Z,2.00
2022-08-02T10:28:51.912Z,1.95
2022-08-02T10:31:25.981Z,2.40
2022-08-02T10:34:00.359Z,2.10
2022-08-02T10:36:33.492Z,2.20
2022-08-02T10:39:04.729Z,1.92
2022-08-02T10:41:55.073Z,1.88
2022-08-02T10:44:31.609Z,2.25
2022-08-02T10:47:22.823Z,1.73
2022-08-02T10:49:55.139Z,1.83
2022-08-02T10:52:25.460Z,2.00
2022-08-02T10:55:00.229Z,1.67
2022-08-02T10:57:31.344Z,2.00
2022-08-02T11:00:12.007Z,2.00
2022-08-02T11:02:53.589Z,1.90
2022-08-02T11:05:42.563Z,1.90
2022-08-02T11:08:22.836Z,1.80
2022-08-02T11:10:52.276Z,2.33
2022-08-02T11:13:22.678Z,1.92
2022-08-02T11:15:56.652Z,1.92
2022-08-02T11:19:00.790Z,2.00
2022-08-02T11:21:31.465Z,1.70
2022-08-02T11:24:28.987Z,2.03
2022-08-02T11:26:59.693Z,1.83
2022-08-02T11:29:40.308Z,1.92
2022-08-02T11:32:18.598Z,1.80
2022-08-02T11:34:49.824Z,2.00
2022-08-02T11:37:30.184Z,1.83
2022-08-02T11:39:59.602Z,1.75
2022-08-02T11:42:34.587Z,1.83
2022-08-02T11:45:04.331Z,2.22
2022-08-02T11:47:37.693Z,2.00
2022-08-02T11:50:12.534Z,1.80
2022-08-02T11:52:42.639Z,1.95
2022-08-02T11:55:13.640Z,1.80
2022-08-02T11:58:04.161Z,1.80
2022-08-02T12:00:33.817Z,1.63
2022-08-02T12:03:04.965Z,1.90
2022-08-02T12:08:25.530Z,1.70
2022-08-02T12:10:54.873Z,1.88
2022-08-02T12:13:24.013Z,2.08
2022-08-02T12:15:53.215Z,2.90
2022-08-02T12:18:37.954Z,2.22
2022-08-02T12:21:23.407Z,1.85
2022-08-02T12:24:00.405Z,1.83
2022-08-02T12:26:31.553Z,1.70
2022-08-02T12:29:01.612Z,2.15
2022-08-02T12:31:57.171Z,2.20
2022-08-02T12:34:31.852Z,1.88
2022-08-02T12:37:03.787Z,2.00
2022-08-02T12:39:41.820Z,2.17
2022-08-02T12:42:12.487Z,2.03
2022-08-02T12:44:53.112Z,1.95
2022-08-02T12:47:23.136Z,1.85
2022-08-02T12:57:53.757Z,1.90
2022-08-02T13:00:27.711Z,1.65
2022-08-02T13:02:57.294Z,1.80
2022-08-02T13:05:28.656Z,3.45
2022-08-02T13:08:18.304Z,2.42
2022-08-02T13:10:47.548Z,2.30
2022-08-02T13:13:21.296Z,2.00
2022-08-02T13:15:51.619Z,2.10
2022-08-02T13:18:20.906Z,2.38
2022-08-02T13:20:50.203Z,2.17
2022-08-02T13:23:21.318Z,2.30
2022-08-02T13:25:52.740Z,2.70
2022-08-02T13:28:24.494Z,2.45
2022-08-02T13:30:53.757Z,2.58
2022-08-02T13:33:24.900Z,2.13
2022-08-02T13:35:54.135Z,2.30
2022-08-02T13:38:25.012Z,2.00
2022-08-02T13:41:07.387Z,2.20
2022-08-02T13:43:52.586Z,2.05
2022-08-02T13:46:29.465Z,2.17
2022-08-02T13:48:59.201Z,2.00
2022-08-02T13:51:28.474Z,1.98
2022-08-02T13:53:58.177Z,1.95
2022-08-02T13:56:35.368Z,2.30
2022-08-02T13:59:55.363Z,2.17
2022-08-02T14:01:58.084Z,2.00
2022-08-02T14:04:29.379Z,1.88
2022-08-02T14:09:29.592Z,1.80
2022-08-02T14:12:03.268Z,1.90
2022-08-02T14:14:34.651Z,2.22
2022-08-02T14:17:06.355Z,1.83
2022-08-02T14:19:35.638Z,1.83
2022-08-02T14:22:10.919Z,1.70
2022-08-02T14:24:42.103Z,1.90
2022-08-02T14:27:11.543Z,2.50
2022-08-02T14:29:42.844Z,2.30
2022-08-02T14:32:12.948Z,2.03
2022-08-02T14:34:43.836Z,2.05
2022-08-02T14:37:13.056Z,2.53
2022-08-02T14:42:30.394Z,2.05
2022-08-02T14:45:02.276Z,2.42
2022-08-02T14:47:33.804Z,2.35
2022-08-02T14:50:03.159Z,2.10
2022-08-02T14:52:33.635Z,1.88
2022-08-02T14:55:04.121Z,1.95
2022-08-02T14:57:33.465Z,2.00
2022-08-02T15:00:06.037Z,2.40
2022-08-02T15:02:35.907Z,2.00
2022-08-02T15:05:05.522Z,2.53
2022-08-02T15:07:42.013Z,2.33
2022-08-02T15:10:13.992Z,2.45
2022-08-02T15:12:43.181Z,2.65
2022-08-02T15:15:14.418Z,2.10
2022-08-02T15:17:43.703Z,3.00
2022-08-02T15:20:24.709Z,2.50
2022-08-02T15:22:55.462Z,2.42
2022-08-02T15:25:25.512Z,2.25
2022-08-02T15:27:54.772Z,2.30
2022-08-02T15:30:26.893Z,2.40
2022-08-02T15:32:56.239Z,3.53
2022-08-02T15:35:25.519Z,3.45
2022-08-02T15:37:54.810Z,3.08
2022-08-02T15:40:24.574Z,3.40
2022-08-02T15:42:54.415Z,2.30
2022-08-02T15:45:27.452Z,2.33
2022-08-02T15:47:56.965Z,2.40
2022-08-02T15:50:26.469Z,2.15
2022-08-02T15:52:56.313Z,2.40
2022-08-02T15:55:25.455Z,3.70
2022-08-02T15:57:54.747Z,2.72
2022-08-02T16:00:26.150Z,2.30
2022-08-02T16:02:55.359Z,2.80
2022-08-02T16:05:24.797Z,2.40
2022-08-02T16:07:54.494Z,2.53
2022-08-02T16:10:24.851Z,2.33
2022-08-02T16:13:17.906Z,2.58
2022-08-02T16:15:49.489Z,2.70
2022-08-02T16:18:21.460Z,2.63
2022-08-02T16:20:50.758Z,2.47
2022-08-02T16:23:59.093Z,2.65
2022-08-02T16:26:11.804Z,3.05
2022-08-02T16:28:41.081Z,3.40
2022-08-02T16:31:12.349Z,2.83
2022-08-02T16:33:41.666Z,2.90
2022-08-02T16:36:12.850Z,3.00
2022-08-02T16:38:42.177Z,4.18
2022-08-02T16:41:12.137Z,3.13
2022-08-02T16:43:45.569Z,12.00
2022-08-02T16:46:17.226Z,8.70
2022-08-02T16:48:50.897Z,5.72
2022-08-02T16:51:20.798Z,4.65
2022-08-02T16:53:59.241Z,6.65
2022-08-02T16:56:30.778Z,5.15
2022-08-02T16:59:00.416Z,4.50
2022-08-02T17:02:03.230Z,4.03
2022-08-02T17:04:22.822Z,3.92
2022-08-02T17:06:52.545Z,4.00
2022-08-02T17:10:03.710Z,3.97
2022-08-02T17:12:16.079Z,3.42
2022-08-02T17:17:43.174Z,4.15
2022-08-02T17:20:13.293Z,4.00
2022-08-02T17:22:44.305Z,4.75
2022-08-02T17:25:15.626Z,4.43
2022-08-02T17:27:47.092Z,4.28
2022-08-02T17:30:27.269Z,4.10
2022-08-02T17:32:59.304Z,4.45
2022-08-02T17:35:40.008Z,4.50
2022-08-02T17:38:26.070Z,5.00
2022-08-02T17:40:56.947Z,6.88
2022-08-02T17:43:29.577Z,6.22
2022-08-02T17:46:02.595Z,6.05
2022-08-02T17:49:00.698Z,6.85
2022-08-02T17:52:15.487Z,5.60
2022-08-02T17:54:22.122Z,6.32
2022-08-02T17:59:31.293Z,5.22
2022-08-02T18:02:11.949Z,5.40
2022-08-02T18:04:43.134Z,6.10
2022-08-02T18:07:16.771Z,6.75
2022-08-02T18:09:53.484Z,11.80
2022-08-02T18:12:22.748Z,9.45
2022-08-02T18:14:52.188Z,11.55
2022-08-02T18:17:21.612Z,10.98
2022-08-02T18:19:59.310Z,14.43
2022-08-02T18:22:35.367Z,10.52
2022-08-02T18:25:09.130Z,9.35
2022-08-02T18:27:41.298Z,10.02
2022-08-02T18:30:17.592Z,10.45
2022-08-02T18:33:54.298Z,12.77
2022-08-02T18:35:43.253Z,10.45
2022-08-02T18:38:13.054Z,7.40
2022-08-02T18:40:44.673Z,7.43
2022-08-02T18:43:25.703Z,7.80
2022-08-02T18:46:06.489Z,8.60
2022-08-02T18:48:47.101Z,11.80
2022-08-02T18:51:19.687Z,10.15
2022-08-02T18:56:24.378Z,8.00
2022-08-02T18:58:55.202Z,30.80
2022-08-02T19:01:32.724Z,11.03
2022-08-02T19:04:04.279Z,8.25
2022-08-02T19:06:35.666Z,12.13
2022-08-02T19:11:55.036Z,11.57
2022-08-02T19:14:28.161Z,7.70
2022-08-02T19:16:59.353Z,8.25
2022-08-02T19:19:29.649Z,11.45
2022-08-02T19:24:55.967Z,9.30
2022-08-02T19:27:32.515Z,10.73
2022-08-02T19:30:03.849Z,11.13
2022-08-02T19:32:40.710Z,8.68
2022-08-02T19:35:29.752Z,9.32
2022-08-02T19:38:10.502Z,9.57
2022-08-02T19:40:42.962Z,8.48
2022-08-02T19:44:21.649Z,8.88
2022-08-02T19:46:02.426Z,8.93
2022-08-02T19:48:31.776Z,8.45
2022-08-02T19:51:07.871Z,9.55
2022-08-02T19:53:48.557Z,8.93
2022-08-02T19:56:20.938Z,9.15
2022-08-02T19:59:12.999Z,8.95
2022-08-02T20:01:48.447Z,10.07
2022-08-02T20:04:23.147Z,10.80
2022-08-02T20:06:55.452Z,9.80
2022-08-02T20:09:33.162Z,9.98
2022-08-02T20:12:16.476Z,9.07
2022-08-02T20:14:51.185Z,9.57
2022-08-02T20:17:21.830Z,8.27
2022-08-02T20:19:52.605Z,7.43
2022-08-02T20:22:21.960Z,8.93
2022-08-02T20:24:53.751Z,9.00
2022-08-02T20:27:27.212Z,8.88
2022-08-02T20:29:59.479Z,7.85
2022-08-02T20:32:28.631Z,7.40
2022-08-02T20:34:57.891Z,7.90
2022-08-02T20:38:00.674Z,7.70
2022-08-02T20:40:18.653Z,8.02
2022-08-02T20:45:18.393Z,6.90
2022-08-02T20:47:49.888Z,6.75
2022-08-02T20:50:51.668Z,7.30
2022-08-02T20:53:23.561Z,7.10
2022-08-02T20:55:57.770Z,7.25
2022-08-02T20:58:27.985Z,7.43
2022-08-02T21:00:59.566Z,7.78
2022-08-02T21:03:39.176Z,8.35
2022-08-02T21:06:10.994Z,8.27
2022-08-02T21:08:40.740Z,7.65
2022-08-02T21:11:12.714Z,7.97
2022-08-02T21:13:47.320Z,7.03
2022-08-02T21:16:32.872Z,8.00
2022-08-02T21:19:03.298Z,7.00
2022-08-02T21:21:39.320Z,6.93
2022-08-02T21:24:11.353Z,7.22
2022-08-02T21:26:43.912Z,6.68
2022-08-02T21:29:18.022Z,6.40
2022-08-02T21:31:47.249Z,5.75
2022-08-02T21:34:22.355Z,6.00
2022-08-02T21:36:57.257Z,6.22
2022-08-02T21:39:26.657Z,5.97
2022-08-02T21:41:57.815Z,5.80
2022-08-02T21:44:26.965Z,5.07
2022-08-02T21:46:58.908Z,5.70
2022-08-02T21:50:09.593Z,5.00
2022-08-02T21:52:19.535Z,4.63
2022-08-02T21:54:52.738Z,4.00
2022-08-02T21:57:25.671Z,4.28
2022-08-02T22:00:07.275Z,4.60
2022-08-02T22:02:38.637Z,4.90
2022-08-02T22:05:14.418Z,4.57
2022-08-02T22:07:45.593Z,5.60
2022-08-02T22:10:15.304Z,6.07
2022-08-02T22:12:50.065Z,6.03
2022-08-02T22:15:25.744Z,6.13
2022-08-02T22:18:05.010Z,6.10
2022-08-02T22:20:34.214Z,6.68
2022-08-02T22:23:04.426Z,6.35
2022-08-02T22:25:42.912Z,6.32
2022-08-02T22:28:50.306Z,6.43
2022-08-02T22:31:07.166Z,6.20
2022-08-02T22:34:00.148Z,5.60
2022-08-02T22:36:32.343Z,5.82
2022-08-02T22:39:02.582Z,5.90
2022-08-02T22:42:02.398Z,6.57
2022-08-02T22:44:24.284Z,5.80
2022-08-02T22:46:53.592Z,5.90
2022-08-02T22:49:38.595Z,5.93
2022-08-02T22:52:12.677Z,5.70
2022-08-02T22:54:43.825Z,5.40
2022-08-02T22:57:13.245Z,6.60
2022-08-02T22:58:48.715Z,3.97
2022-08-02T22:58:58.175Z,10.80
2022-08-02T22:59:00.513Z,11.80
2022-08-02T22:59:44.550Z,5.95
2022-08-02T23:02:18.251Z,5.53
2022-08-02T23:04:47.763Z,5.68
2022-08-02T23:07:16.893Z,5.75
2022-08-02T23:09:46.345Z,5.75
2022-08-02T23:12:18.741Z,6.20
2022-08-02T23:14:51.033Z,5.45
2022-08-02T23:17:34.241Z,6.72
2022-08-02T23:20:05.894Z,5.45
2022-08-02T23:22:35.865Z,5.63
2022-08-02T23:25:06.064Z,6.15
2022-08-02T23:27:35.534Z,5.70
2022-08-02T23:30:10.344Z,5.60
2022-08-02T23:32:40.970Z,5.65
2022-08-02T23:35:16.570Z,5.95
2022-08-02T23:38:00.277Z,5.05
2022-08-02T23:40:39.194Z,5.60
2022-08-02T23:43:14.649Z,5.70
2022-08-02T23:45:47.475Z,5.68
2022-08-02T23:48:16.758Z,6.22
2022-08-02T23:50:45.945Z,5.88
2022-08-02T23:53:16.759Z,5.70
2022-08-02T23:55:45.892Z,6.10
2022-08-02T23:58:15.117Z,5.82
